Terminal Aerodrome Forecast
Issued by NWS

Home | Current Version | Previous Version | Text Only | Print | Product List | Glossary Off
Versions: 1 2 3 4 5 6 7 8 9 10 11 12 13 14 15 16 17 18 19 20 21 22 23

227
FTUS43 KMPX 161133
TAFRWF
TAF
KRWF 161133Z 1612/1712 13010KT 5SM -SHRA BR SCT005 BKN040
     FM161400 13007KT 6SM BR SCT015 OVC025
     FM161800 10007KT 6SM -RA BR SCT015 OVC025
     FM162000 01007KT 4SM -RA BR VCTS SCT025 OVC040CB
      TEMPO 1620/1624 2SM TSRA BKN025CB
     FM170000 32006KT 4SM -SHRA BR SCT007 OVC020
     FM170400 31006KT 6SM BR OVC007=

USA.gov is the U.S. government's official web portal to all federal, state and local government web resources and services.